Verstervig, Denmark
Current Conditions -  °F | °C
As of 4:33 PM on Thursday 23 Oct 2014 (Local Time) from EKKA Reporting Station
Drizzle Drizzle  
Wind Chill: 52°   Ceiling: 600
Heat Index: 52°   Visibility: 1.7mi
Dew Point: 52°   Wind: 12mph
Humidity: 100%   Direction: 160°SSE
Pressure: 30.03"   Gusts: NA
Location:  56.7°N, 8.22°E
Report Text: EKKA 231433Z 16010KT 130V190 2800 -DZ BR SCT004 BKN006 11/11 Q1017
Loading
Personal Weather Stations






























Interactive Weather Map New forecast layout! Learn more

10-Day Weather Forecast

Advertisements
Track Severe Weather on mobile